createdAt,value
2016-05-07T00:00:52.046Z,0
2016-05-07T00:01:52.048Z,0
2016-05-07T00:02:52.223Z,0
2016-05-07T00:03:51.976Z,0
2016-05-07T00:04:52.353Z,0
2016-05-07T00:05:52.340Z,0
2016-05-07T00:06:52.234Z,0
2016-05-07T00:07:52.456Z,0
2016-05-07T00:08:52.473Z,0
2016-05-07T00:09:52.523Z,0
2016-05-07T00:10:52.572Z,0
2016-05-07T00:11:52.451Z,0
2016-05-07T00:12:52.484Z,0
2016-05-07T00:13:52.361Z,0
2016-05-07T00:14:52.600Z,0
2016-05-07T00:15:52.758Z,0
2016-05-07T00:16:52.791Z,0
2016-05-07T00:17:52.826Z,0
2016-05-07T00:18:52.891Z,0
2016-05-07T00:19:52.644Z,0
2016-05-07T00:20:52.803Z,0
2016-05-07T00:21:53.024Z,0
2016-05-07T00:22:52.886Z,0
2016-05-07T00:23:53.092Z,0
2016-05-07T00:24:52.985Z,0
2016-05-07T00:25:53.223Z,0
2016-05-07T00:26:53.147Z,0
2016-05-07T00:27:53.274Z,0
2016-05-07T00:28:53.309Z,0
2016-05-07T00:29:53.186Z,0
2016-05-07T00:30:53.377Z,0
2016-05-07T00:31:53.442Z,0
2016-05-07T00:32:53.320Z,0
2016-05-07T00:33:53.369Z,0
2016-05-07T00:34:53.543Z,0
2016-05-07T00:35:53.437Z,0
2016-05-07T00:36:53.673Z,0
2016-05-07T00:37:53.568Z,0
2016-05-07T00:38:53.742Z,0
2016-05-07T00:39:53.761Z,0
2016-05-07T00:40:53.856Z,0
2016-05-07T00:41:53.828Z,0
2016-05-07T00:42:53.736Z,0
2016-05-07T00:43:53.974Z,0
2016-05-07T00:44:53.805Z,0
2016-05-07T00:45:54.011Z,0
2016-05-07T00:46:53.888Z,0
2016-05-07T00:47:53.969Z,0
2016-05-07T00:48:54.144Z,0
2016-05-07T00:49:54.177Z,0
2016-05-07T00:50:54.102Z,0
2016-05-07T00:51:54.293Z,0
2016-05-07T00:52:54.295Z,0
2016-05-07T00:53:54.329Z,0
2016-05-07T00:54:54.426Z,0
2016-05-07T00:55:54.413Z,0
2016-05-07T00:56:54.666Z,0
2016-05-07T00:57:55.276Z,0
2016-05-07T00:58:54.546Z,0
2016-05-07T00:59:54.595Z,0
2016-05-07T01:00:54.629Z,0
2016-05-07T01:01:54.584Z,0
2016-05-07T01:02:54.540Z,0
2016-05-07T01:03:54.746Z,0
2016-05-07T01:04:54.656Z,0
2016-05-07T01:05:54.862Z,0
2016-05-07T01:06:54.895Z,0
2016-05-07T01:07:54.914Z,0
2016-05-07T01:08:54.978Z,0
2016-05-07T01:09:55.012Z,0
2016-05-07T01:10:54.922Z,0
2016-05-07T01:11:55.706Z,0
2016-05-07T01:12:55.130Z,0
2016-05-07T01:13:55.227Z,0
2016-05-07T01:14:55.042Z,0
2016-05-07T01:15:55.122Z,0
2016-05-07T01:16:55.313Z,0
2016-05-07T01:17:55.331Z,0
2016-05-07T01:18:55.365Z,0
2016-05-07T01:19:55.414Z,0
2016-05-07T01:20:55.510Z,0
2016-05-07T01:21:55.342Z,0
2016-05-07T01:22:55.391Z,0
2016-05-07T01:23:55.425Z,0
2016-05-07T01:24:55.459Z,0
2016-05-07T01:25:55.494Z,0
2016-05-07T01:26:56.245Z,0
2016-05-07T01:27:55.749Z,0
2016-05-07T01:28:55.799Z,0
2016-05-07T01:29:55.816Z,0
2016-05-07T01:30:55.709Z,0
2016-05-07T01:31:55.744Z,0
2016-05-07T01:32:55.778Z,0
2016-05-07T01:33:56.031Z,0
2016-05-07T01:34:56.065Z,0
2016-05-07T01:35:56.067Z,0
2016-05-07T01:36:55.789Z,0
2016-05-07T01:37:56.150Z,0
2016-05-07T01:38:56.231Z,0
2016-05-07T01:39:56.062Z,0
2016-05-07T01:40:56.399Z,0
2016-05-07T01:41:56.873Z,0
2016-05-07T01:42:56.427Z,0
2016-05-07T01:43:56.383Z,0
2016-05-07T01:44:56.476Z,0
2016-05-07T01:45:56.321Z,0
2016-05-07T01:46:56.496Z,0
2016-05-07T01:47:56.546Z,0
2016-05-07T01:48:56.626Z,0
2016-05-07T01:49:56.488Z,0
2016-05-07T01:50:56.695Z,0
2016-05-07T01:51:56.712Z,0
2016-05-07T01:52:56.464Z,0
2016-05-07T01:53:56.484Z,0
2016-05-07T01:54:56.689Z,0
2016-05-07T01:55:56.426Z,0
2016-05-07T01:56:57.961Z,0
2016-05-07T01:57:56.963Z,0
2016-05-07T01:58:57.044Z,0
2016-05-07T01:59:57.047Z,0
2016-05-07T02:00:56.939Z,0
2016-05-07T02:01:56.958Z,0
2016-05-07T02:02:57.195Z,0
2016-05-07T02:03:57.229Z,0
2016-05-07T02:04:57.232Z,0
2016-05-07T02:05:57.282Z,0
2016-05-07T02:06:57.363Z,0
2016-05-07T02:07:57.083Z,0
2016-05-07T02:08:57.258Z,0
2016-05-07T02:09:57.276Z,0
2016-05-07T02:10:57.357Z,0
2016-05-07T02:11:57.688Z,0
2016-05-07T02:12:57.582Z,0
2016-05-07T02:13:57.162Z,0
2016-05-07T02:14:57.524Z,0
2016-05-07T02:15:57.683Z,0
2016-05-07T02:16:57.577Z,0
2016-05-07T02:17:57.767Z,0
2016-05-07T02:18:57.817Z,0
2016-05-07T02:19:57.850Z,0
2016-05-07T02:20:57.900Z,0
2016-05-07T02:21:57.777Z,0
2016-05-07T02:22:57.999Z,0
2016-05-07T02:23:57.908Z,0
2016-05-07T02:24:57.945Z,0
2016-05-07T02:25:58.104Z,0
2016-05-07T02:26:58.356Z,0
2016-05-07T02:27:58.250Z,0
2016-05-07T02:28:58.096Z,0
2016-05-07T02:29:58.256Z,0
2016-05-07T02:30:58.305Z,0
2016-05-07T02:31:58.385Z,0
2016-05-07T02:32:58.263Z,0
2016-05-07T02:33:58.251Z,0
2016-05-07T02:34:58.316Z,0
2016-05-07T02:35:58.522Z,0
2016-05-07T02:36:58.539Z,0
2016-05-07T02:37:58.479Z,0
2016-05-07T02:38:58.342Z,0
2016-05-07T02:39:58.673Z,0
2016-05-07T02:40:58.707Z,0
2016-05-07T02:41:58.631Z,0
2016-05-07T02:42:58.837Z,0
2016-05-07T02:43:58.699Z,0
2016-05-07T02:44:58.858Z,0
2016-05-07T02:45:58.924Z,0
2016-05-07T02:46:58.816Z,0
2016-05-07T02:47:58.835Z,0
2016-05-07T02:48:59.024Z,0
2016-05-07T02:49:59.090Z,0
2016-05-07T02:50:59.109Z,0
2016-05-07T02:51:58.987Z,0
2016-05-07T02:52:59.239Z,0
2016-05-07T02:53:59.085Z,0
2016-05-07T02:54:59.245Z,0
2016-05-07T02:55:59.309Z,0
2016-05-07T02:56:59.328Z,0
2016-05-07T02:57:59.378Z,0
2016-05-07T02:58:59.317Z,0
2016-05-07T02:59:59.476Z,0
2016-05-07T03:00:59.573Z,0
2016-05-07T03:01:59.528Z,0
2016-05-07T03:02:59.625Z,0
2016-05-07T03:03:59.675Z,0
2016-05-07T03:04:59.678Z,0
2016-05-07T03:05:59.711Z,0
2016-05-07T03:06:59.761Z,0
2016-05-07T03:07:59.794Z,0
2016-05-07T03:08:59.828Z,0
2016-05-07T03:09:59.722Z,0
2016-05-07T03:10:59.928Z,0
2016-05-07T03:12:00.149Z,0
2016-05-07T03:12:59.699Z,0
2016-05-07T03:13:59.888Z,0
2016-05-07T03:15:00.111Z,0
2016-05-07T03:15:59.847Z,0
2016-05-07T03:17:00.007Z,0
2016-05-07T03:18:00.196Z,0
2016-05-07T03:19:00.293Z,0
2016-05-07T03:20:00.170Z,0
2016-05-07T03:21:00.205Z,0
2016-05-07T03:22:00.379Z,0
2016-05-07T03:23:00.413Z,5
2016-05-07T03:24:00.415Z,5
2016-05-07T03:25:00.497Z,5
2016-05-07T03:26:00.374Z,5
2016-05-07T03:27:00.393Z,5
2016-05-07T03:28:00.583Z,5
2016-05-07T03:29:00.507Z,5
2016-05-07T03:30:00.525Z,5
2016-05-07T03:31:00.685Z,10
2016-05-07T03:32:00.750Z,10
2016-05-07T03:33:00.815Z,10
2016-05-07T03:34:00.817Z,10
2016-05-07T03:35:00.915Z,10
2016-05-07T03:36:00.933Z,15
2016-05-07T03:37:00.795Z,15
2016-05-07T03:38:00.985Z,15
2016-05-07T03:39:01.034Z,15
2016-05-07T03:40:01.115Z,15
2016-05-07T03:41:01.009Z,20
2016-05-07T03:42:00.839Z,20
2016-05-07T03:43:01.201Z,20
2016-05-07T03:44:01.079Z,20
2016-05-07T03:45:01.254Z,20
2016-05-07T03:46:01.147Z,25
2016-05-07T03:47:01.213Z,25
2016-05-07T03:48:01.465Z,25
2016-05-07T03:49:01.421Z,25
2016-05-07T03:50:01.502Z,30
2016-05-07T03:51:01.520Z,30
2016-05-07T03:52:01.538Z,30
2016-05-07T03:53:01.275Z,30
2016-05-07T03:54:01.481Z,35
2016-05-07T03:55:01.515Z,35
2016-05-07T03:56:01.533Z,35
2016-05-07T03:57:01.818Z,35
2016-05-07T03:58:01.617Z,40
2016-05-07T03:59:01.823Z,40
2016-05-07T04:00:01.731Z,40
2016-05-07T04:01:01.937Z,40
2016-05-07T04:02:01.971Z,45
2016-05-07T04:03:01.989Z,45
2016-05-07T04:04:01.867Z,45
2016-05-07T04:05:02.151Z,45
2016-05-07T04:06:01.936Z,50
2016-05-07T04:07:01.969Z,50
2016-05-07T04:08:02.159Z,50
2016-05-07T04:09:02.272Z,50
2016-05-07T04:10:02.086Z,55
2016-05-07T04:11:02.136Z,55
2016-05-07T04:12:02.592Z,55
2016-05-07T04:13:02.407Z,55
2016-05-07T04:14:02.113Z,60
2016-05-07T04:15:02.288Z,60
2016-05-07T04:16:02.196Z,60
2016-05-07T04:17:02.543Z,60
2016-05-07T04:18:02.421Z,65
2016-05-07T04:19:02.455Z,65
2016-05-07T04:20:02.519Z,65
2016-05-07T04:21:02.601Z,65
2016-05-07T04:22:02.728Z,70
2016-05-07T04:23:02.606Z,70
2016-05-07T04:24:02.687Z,70
2016-05-07T04:25:02.846Z,70
2016-05-07T04:26:02.879Z,75
2016-05-07T04:27:02.960Z,75
2016-05-07T04:28:02.854Z,75
2016-05-07T04:29:02.997Z,75
2016-05-07T04:30:03.062Z,80
2016-05-07T04:31:02.971Z,80
2016-05-07T04:32:03.114Z,80
2016-05-07T04:33:03.008Z,80
2016-05-07T04:34:03.261Z,80
2016-05-07T04:35:03.309Z,85
2016-05-07T04:36:03.298Z,85
2016-05-07T04:37:03.315Z,85
2016-05-07T04:38:03.427Z,85
2016-05-07T04:39:03.415Z,85
2016-05-07T04:40:03.448Z,90
2016-05-07T04:41:03.482Z,90
2016-05-07T04:42:03.594Z,90
2016-05-07T04:43:03.395Z,90
2016-05-07T04:44:03.600Z,90
2016-05-07T04:45:03.524Z,90
2016-05-07T04:46:03.714Z,95
2016-05-07T04:47:03.717Z,95
2016-05-07T04:48:03.767Z,95
2016-05-07T04:49:03.847Z,95
2016-05-07T04:50:03.897Z,95
2016-05-07T04:51:03.760Z,100
2016-05-07T04:52:03.918Z,100
2016-05-07T04:53:03.874Z,100
2016-05-07T04:54:04.048Z,100
2016-05-07T04:55:04.035Z,100
2016-05-07T04:56:03.960Z,100
2016-05-07T04:57:03.823Z,100
2016-05-07T04:58:04.028Z,105
2016-05-07T04:59:04.203Z,105
2016-05-07T05:00:04.112Z,105
2016-05-07T05:01:04.318Z,105
2016-05-07T05:02:04.148Z,105
2016-05-07T05:03:04.370Z,105
2016-05-07T05:04:04.419Z,110
2016-05-07T05:05:04.345Z,110
2016-05-07T05:06:04.315Z,110
2016-05-07T05:07:04.536Z,110
2016-05-07T05:08:04.289Z,110
2016-05-07T05:09:04.605Z,110
2016-05-07T05:10:04.670Z,110
2016-05-07T05:11:04.392Z,110
2016-05-07T05:12:04.597Z,110
2016-05-07T05:13:04.772Z,110
2016-05-07T05:14:04.633Z,110
2016-05-07T05:15:04.542Z,110
2016-05-07T05:16:04.749Z,110
2016-05-07T05:17:04.923Z,110
2016-05-07T05:18:04.972Z,115
2016-05-07T05:19:05.053Z,115
2016-05-07T05:20:05.041Z,115
2016-05-07T05:21:04.933Z,115
2016-05-07T05:22:05.156Z,115
2016-05-07T05:23:05.236Z,115
2016-05-07T05:24:05.223Z,115
2016-05-07T05:25:05.085Z,115
2016-05-07T05:26:05.291Z,120
2016-05-07T05:27:05.106Z,120
2016-05-07T05:28:05.390Z,120
2016-05-07T05:29:05.393Z,120
2016-05-07T05:30:05.505Z,120
2016-05-07T05:31:05.367Z,120
2016-05-07T05:32:05.370Z,120
2016-05-07T05:33:05.466Z,120
2016-05-07T05:34:05.609Z,125
2016-05-07T05:35:05.643Z,125
2016-05-07T05:36:05.553Z,125
2016-05-07T05:37:05.789Z,125
2016-05-07T05:38:05.776Z,125
2016-05-07T05:39:05.811Z,125
2016-05-07T05:40:05.891Z,125
2016-05-07T05:41:05.910Z,125
2016-05-07T05:42:06.694Z,130
2016-05-07T05:43:05.961Z,130
2016-05-07T05:44:06.059Z,130
2016-05-07T05:45:06.077Z,130
2016-05-07T05:46:05.939Z,130
2016-05-07T05:47:06.144Z,130
2016-05-07T05:48:06.163Z,130
2016-05-07T05:49:06.072Z,130
2016-05-07T05:50:06.277Z,130
2016-05-07T05:51:06.202Z,130
2016-05-07T05:52:06.236Z,135
2016-05-07T05:53:06.083Z,135
2016-05-07T05:54:06.272Z,135
2016-05-07T05:55:06.463Z,135
2016-05-07T05:56:06.513Z,135
2016-05-07T05:57:06.546Z,135
2016-05-07T05:58:06.627Z,140
2016-05-07T05:59:06.458Z,135
2016-05-07T06:00:06.696Z,135
2016-05-07T06:01:06.698Z,135
2016-05-07T06:02:06.826Z,145
2016-05-07T06:03:06.640Z,140
2016-05-07T06:04:06.846Z,140
2016-05-07T06:05:06.896Z,140
2016-05-07T06:06:06.930Z,140
2016-05-07T06:07:06.823Z,140
2016-05-07T06:08:06.998Z,140
2016-05-07T06:09:07.063Z,140
2016-05-07T06:10:06.973Z,140
2016-05-07T06:11:07.115Z,140
2016-05-07T06:12:07.461Z,140
2016-05-07T06:13:07.058Z,140
2016-05-07T06:14:07.092Z,145
2016-05-07T06:15:07.126Z,145
2016-05-07T06:16:07.332Z,145
2016-05-07T06:17:07.381Z,145
2016-05-07T06:18:07.275Z,145
2016-05-07T06:19:07.122Z,145
2016-05-07T06:20:07.172Z,145
2016-05-07T06:21:07.424Z,145
2016-05-07T06:22:07.614Z,145
2016-05-07T06:23:07.616Z,145
2016-05-07T06:24:09.682Z,145
2016-05-07T06:25:07.700Z,150
2016-05-07T06:26:07.749Z,150
2016-05-07T06:27:07.799Z,150
2016-05-07T06:28:07.833Z,150
2016-05-07T06:29:07.710Z,150
2016-05-07T06:30:07.760Z,150
2016-05-07T06:31:07.793Z,150
2016-05-07T06:32:07.984Z,150
2016-05-07T06:33:07.863Z,150
2016-05-07T06:34:08.068Z,150
2016-05-07T06:35:08.101Z,150
2016-05-07T06:36:08.168Z,150
2016-05-07T06:37:08.232Z,155
2016-05-07T06:38:08.345Z,155
2016-05-07T06:39:08.268Z,155
2016-05-07T06:40:08.162Z,155
2016-05-07T06:41:08.353Z,155
2016-05-07T06:42:08.745Z,155
2016-05-07T06:43:08.279Z,155
2016-05-07T06:44:08.313Z,155
2016-05-07T06:45:08.378Z,155
2016-05-07T06:46:08.569Z,155
2016-05-07T06:47:08.306Z,155
2016-05-07T06:48:08.497Z,155
2016-05-07T06:49:08.764Z,160
2016-05-07T06:50:08.564Z,160
2016-05-07T06:51:08.770Z,160
2016-05-07T06:52:08.663Z,160
2016-05-07T06:53:08.541Z,160
2016-05-07T06:54:08.591Z,160
2016-05-07T06:55:08.968Z,160
2016-05-07T06:56:08.861Z,160
2016-05-07T06:57:09.254Z,160
2016-05-07T06:58:09.039Z,160
2016-05-07T06:59:09.104Z,160
2016-05-07T07:00:09.028Z,160
2016-05-07T07:01:09.046Z,165
2016-05-07T07:02:09.096Z,165
2016-05-07T07:03:09.130Z,165
2016-05-07T07:04:09.165Z,165
2016-05-07T07:05:09.401Z,165
2016-05-07T07:06:09.420Z,165
2016-05-07T07:07:09.515Z,165
2016-05-07T07:08:09.316Z,165
2016-05-07T07:09:09.209Z,165
2016-05-07T07:10:09.430Z,165
2016-05-07T07:11:09.605Z,165
2016-05-07T07:12:10.904Z,170
2016-05-07T07:13:09.720Z,170
2016-05-07T07:14:09.737Z,170
2016-05-07T07:15:09.631Z,170
2016-05-07T07:16:09.649Z,170
2016-05-07T07:17:09.700Z,170
2016-05-07T07:18:09.953Z,170
2016-05-07T07:19:09.798Z,170
2016-05-07T07:20:09.691Z,170
2016-05-07T07:21:10.022Z,170
2016-05-07T07:22:09.744Z,170
2016-05-07T07:23:10.106Z,170
2016-05-07T07:24:10.000Z,175
2016-05-07T07:25:10.236Z,175
2016-05-07T07:26:10.239Z,175
2016-05-07T07:27:10.351Z,175
2016-05-07T07:28:10.650Z,175
2016-05-07T07:29:10.371Z,175
2016-05-07T07:30:10.422Z,175
2016-05-07T07:31:10.284Z,175
2016-05-07T07:32:10.630Z,175
2016-05-07T07:33:09.992Z,175
2016-05-07T07:34:10.573Z,175
2016-05-07T07:35:10.732Z,175
2016-05-07T07:36:10.360Z,175
2016-05-07T07:37:10.597Z,175
2016-05-07T07:38:10.849Z,175
2016-05-07T07:39:10.805Z,175
2016-05-07T07:40:10.823Z,180
2016-05-07T07:41:10.717Z,180
2016-05-07T07:42:10.954Z,180
2016-05-07T07:43:10.879Z,180
2016-05-07T07:44:11.006Z,180
2016-05-07T07:45:11.165Z,180
2016-05-07T07:46:11.105Z,180
2016-05-07T07:47:10.998Z,180
2016-05-07T07:48:11.173Z,185
2016-05-07T07:49:10.942Z,185
2016-05-07T07:50:10.975Z,185
2016-05-07T07:51:11.291Z,185
2016-05-07T07:52:10.871Z,185
2016-05-07T07:53:11.390Z,185
2016-05-07T07:54:11.267Z,185
2016-05-07T07:55:11.458Z,185
2016-05-07T07:56:11.430Z,185
2016-05-07T07:57:11.791Z,185
2016-05-07T07:58:12.310Z,185
2016-05-07T07:59:11.671Z,185
2016-05-07T08:00:11.721Z,185
2016-05-07T08:01:11.630Z,190
2016-05-07T08:02:12.055Z,190
2016-05-07T08:03:11.854Z,190
2016-05-07T08:04:11.607Z,190
2016-05-07T08:05:11.890Z,190
2016-05-07T08:06:12.019Z,190
2016-05-07T08:07:12.130Z,190
2016-05-07T08:08:12.149Z,195
2016-05-07T08:09:11.542Z,195
2016-05-07T08:10:12.467Z,195
2016-05-07T08:11:12.360Z,195
2016-05-07T08:12:11.643Z,195
2016-05-07T08:13:12.225Z,195
2016-05-07T08:14:12.524Z,195
2016-05-07T08:15:12.370Z,195
2016-05-07T08:16:12.577Z,195
2016-05-07T08:17:12.345Z,195
2016-05-07T08:18:12.550Z,195
2016-05-07T08:19:12.522Z,195
2016-05-07T08:20:12.447Z,195
2016-05-07T08:21:12.575Z,195
2016-05-07T08:22:12.656Z,195
2016-05-07T08:23:12.798Z,195
2016-05-07T08:24:12.660Z,195
2016-05-07T08:25:12.757Z,200
2016-05-07T08:26:12.807Z,200
2016-05-07T08:27:13.200Z,200
2016-05-07T08:28:12.718Z,200
2016-05-07T08:29:12.710Z,200
2016-05-07T08:30:13.021Z,200
2016-05-07T08:31:13.130Z,200
2016-05-07T08:32:13.269Z,200
2016-05-07T08:33:13.315Z,205
2016-05-07T08:34:13.404Z,205
2016-05-07T08:35:13.469Z,205
2016-05-07T08:36:13.535Z,210
2016-05-07T08:37:13.771Z,205
2016-05-07T08:38:13.585Z,205
2016-05-07T08:39:13.540Z,210
2016-05-07T08:40:13.689Z,210
2016-05-07T08:41:13.744Z,210
2016-05-07T08:42:15.988Z,210
2016-05-07T08:43:13.730Z,210
2016-05-07T08:44:13.894Z,210
2016-05-07T08:45:13.618Z,210
2016-05-07T08:46:14.045Z,215
2016-05-07T08:47:14.049Z,215
2016-05-07T08:48:13.943Z,215
2016-05-07T08:49:14.137Z,215
2016-05-07T08:50:14.234Z,215
2016-05-07T08:51:14.205Z,220
2016-05-07T08:52:14.256Z,220
2016-05-07T08:53:14.369Z,220
2016-05-07T08:54:14.200Z,220
2016-05-07T08:55:14.375Z,220
2016-05-07T08:56:14.285Z,220
2016-05-07T08:57:15.319Z,220
2016-05-07T08:58:14.525Z,225
2016-05-07T08:59:14.575Z,225
2016-05-07T09:00:14.624Z,225
2016-05-07T09:01:14.721Z,225
2016-05-07T09:02:14.708Z,230
2016-05-07T09:03:14.538Z,230
2016-05-07T09:04:14.777Z,230
2016-05-07T09:05:14.701Z,230
2016-05-07T09:06:14.563Z,230
2016-05-07T09:07:14.799Z,230
2016-05-07T09:08:14.990Z,230
2016-05-07T09:09:15.008Z,235
2016-05-07T09:10:15.058Z,235
2016-05-07T09:11:15.107Z,235
2016-05-07T09:12:14.891Z,235
2016-05-07T09:13:14.878Z,235
2016-05-07T09:14:15.241Z,240
2016-05-07T09:15:15.274Z,240
2016-05-07T09:16:15.340Z,245
2016-05-07T09:17:15.045Z,245
2016-05-07T09:18:15.439Z,255
2016-05-07T09:19:15.457Z,250
2016-05-07T09:20:15.507Z,255
2016-05-07T09:21:15.556Z,255
2016-05-07T09:22:15.417Z,260
2016-05-07T09:23:15.609Z,265
2016-05-07T09:24:15.502Z,265
2016-05-07T09:25:15.755Z,265
2016-05-07T09:26:15.601Z,265
2016-05-07T09:27:15.666Z,265
2016-05-07T09:28:15.684Z,270
2016-05-07T09:29:15.734Z,270
2016-05-07T09:30:15.955Z,270
2016-05-07T09:31:15.974Z,270
2016-05-07T09:32:16.038Z,270
2016-05-07T09:33:16.057Z,270
2016-05-07T09:34:15.950Z,270
2016-05-07T09:35:15.844Z,270
2016-05-07T09:36:16.347Z,275
2016-05-07T09:37:16.208Z,275
2016-05-07T09:38:16.211Z,275
2016-05-07T09:39:16.573Z,280
2016-05-07T09:40:16.451Z,280
2016-05-07T09:41:16.329Z,285
2016-05-07T09:42:16.347Z,285
2016-05-07T09:43:16.521Z,290
2016-05-07T09:44:16.524Z,295
2016-05-07T09:45:16.762Z,295
2016-05-07T09:46:16.405Z,300
2016-05-07T09:47:16.751Z,305
2016-05-07T09:48:16.707Z,305
2016-05-07T09:49:16.787Z,310
2016-05-07T09:50:16.837Z,315
2016-05-07T09:51:16.715Z,320
2016-05-07T09:52:16.937Z,315
2016-05-07T09:53:17.048Z,320
2016-05-07T09:54:17.129Z,325
2016-05-07T09:55:16.928Z,325
2016-05-07T09:56:17.120Z,330
2016-05-07T09:57:18.122Z,330
2016-05-07T09:58:17.234Z,335
2016-05-07T09:59:17.314Z,345
2016-05-07T10:00:17.286Z,345
2016-05-07T10:01:17.242Z,350
2016-05-07T10:02:17.370Z,350
2016-05-07T10:03:17.591Z,350
2016-05-07T10:04:17.688Z,350
2016-05-07T10:05:17.581Z,355
2016-05-07T10:06:17.411Z,360
2016-05-07T10:07:17.618Z,360
2016-05-07T10:08:17.605Z,365
2016-05-07T10:09:17.701Z,380
2016-05-07T10:10:17.813Z,500
2016-05-07T10:11:17.769Z,1330
2016-05-07T10:12:17.959Z,2255
2016-05-07T10:13:17.977Z,2705
2016-05-07T10:14:17.996Z,2715
2016-05-07T10:15:17.826Z,2765
2016-05-07T10:16:18.157Z,2790
2016-05-07T10:17:18.051Z,2705
2016-05-07T10:18:17.835Z,2740
2016-05-07T10:19:18.165Z,2865
2016-05-07T10:20:18.262Z,2620
2016-05-07T10:21:18.265Z,2365
2016-05-07T10:22:18.298Z,2820
2016-05-07T10:23:18.206Z,2910
2016-05-07T10:24:18.491Z,2940
2016-05-07T10:25:18.463Z,2980
2016-05-07T10:26:18.528Z,3125
2016-05-07T10:27:18.749Z,1810
2016-05-07T10:28:18.623Z,2075
2016-05-07T10:29:18.687Z,3115
2016-05-07T10:30:18.580Z,3075
2016-05-07T10:31:18.850Z,2575
2016-05-07T10:32:18.836Z,2755
2016-05-07T10:33:18.761Z,3280
2016-05-07T10:34:18.982Z,3270
2016-05-07T10:35:18.876Z,3180
2016-05-07T10:36:19.144Z,3245
2016-05-07T10:37:19.161Z,3295
2016-05-07T10:38:19.244Z,3345
2016-05-07T10:39:19.121Z,3320
2016-05-07T10:40:19.310Z,2015
2016-05-07T10:41:19.047Z,2470
2016-05-07T10:42:20.050Z,620
2016-05-07T10:43:19.335Z,570
2016-05-07T10:44:19.587Z,630
2016-05-07T10:45:19.605Z,3380
2016-05-07T10:46:19.499Z,1155
2016-05-07T10:47:19.751Z,3450
2016-05-07T10:48:19.863Z,3345
2016-05-07T10:49:19.866Z,3360
2016-05-07T10:50:19.885Z,3250
2016-05-07T10:51:19.965Z,3380
2016-05-07T10:52:19.999Z,3375
2016-05-07T10:53:19.596Z,715
2016-05-07T10:54:19.645Z,735
2016-05-07T10:55:20.179Z,1120
2016-05-07T10:56:20.259Z,3510
2016-05-07T10:57:20.185Z,3025
2016-05-07T10:58:20.250Z,3320
2016-05-07T10:59:20.424Z,3440
2016-05-07T11:00:20.318Z,660
2016-05-07T11:01:20.226Z,585
2016-05-07T11:02:20.603Z,650
2016-05-07T11:03:20.638Z,3520
2016-05-07T11:04:20.720Z,3415
2016-05-07T11:05:20.784Z,3400
2016-05-07T11:06:20.505Z,3870
2016-05-07T11:07:20.868Z,4065
2016-05-07T11:08:20.870Z,2470
2016-05-07T11:09:20.872Z,4055
2016-05-07T11:10:20.891Z,4015
2016-05-07T11:11:21.144Z,3895
2016-05-07T11:12:21.381Z,3350
2016-05-07T11:13:21.243Z,3780
2016-05-07T11:14:21.277Z,3915
2016-05-07T11:15:21.405Z,3970
2016-05-07T11:16:21.407Z,640
2016-05-07T11:17:21.488Z,4050
2016-05-07T11:18:21.522Z,3655
2016-05-07T11:19:21.494Z,4035
2016-05-07T11:20:21.637Z,3980
2016-05-07T11:21:21.687Z,2550
2016-05-07T11:22:21.782Z,4230
2016-05-07T11:23:21.676Z,3825
2016-05-07T11:24:21.882Z,4280
2016-05-07T11:25:21.932Z,1385
2016-05-07T11:26:21.887Z,4290
2016-05-07T11:27:22.296Z,975
2016-05-07T11:28:22.096Z,2195
2016-05-07T11:29:22.036Z,705
2016-05-07T11:30:21.961Z,755
2016-05-07T11:31:22.182Z,750
2016-05-07T11:32:22.419Z,4210
2016-05-07T11:33:22.142Z,4115
2016-05-07T11:34:22.503Z,2560
2016-05-07T11:35:22.397Z,4185
2016-05-07T11:36:22.336Z,1015
2016-05-07T11:37:22.494Z,4350
2016-05-07T11:38:22.608Z,4305
2016-05-07T11:39:22.657Z,1305
2016-05-07T11:40:22.753Z,900
2016-05-07T11:41:22.912Z,2045
2016-05-07T11:42:22.978Z,4170
2016-05-07T11:43:22.918Z,4155
2016-05-07T11:44:23.076Z,4275
2016-05-07T11:45:23.158Z,880
2016-05-07T11:46:23.082Z,975
2016-05-07T11:47:23.100Z,4085
2016-05-07T11:48:23.352Z,4150
2016-05-07T11:49:23.434Z,1825
2016-05-07T11:50:23.468Z,690
2016-05-07T11:51:23.346Z,4060
2016-05-07T11:52:23.645Z,840
2016-05-07T11:53:23.663Z,4150
2016-05-07T11:54:23.541Z,2750
2016-05-07T11:55:23.731Z,1030
2016-05-07T11:56:23.843Z,1375
2016-05-07T11:57:25.392Z,690
2016-05-07T11:58:23.943Z,600
2016-05-07T11:59:24.117Z,610
2016-05-07T12:00:24.073Z,595
2016-05-07T12:01:23.997Z,1485
2016-05-07T12:02:24.219Z,3890
2016-05-07T12:03:24.268Z,2035
2016-05-07T12:04:24.145Z,3740
2016-05-07T12:05:24.336Z,775
2016-05-07T12:06:24.308Z,1360
2016-05-07T12:07:24.451Z,3955
2016-05-07T12:08:24.516Z,1025
2016-05-07T12:09:24.597Z,3700
2016-05-07T12:10:24.662Z,3910
2016-05-07T12:11:24.649Z,4050
2016-05-07T12:12:25.667Z,3350
2016-05-07T12:13:24.795Z,945
2016-05-07T12:14:24.532Z,925
2016-05-07T12:15:24.910Z,715
2016-05-07T12:16:24.850Z,650
2016-05-07T12:17:24.915Z,750
2016-05-07T12:18:25.058Z,2080
2016-05-07T12:19:25.171Z,775
2016-05-07T12:20:25.049Z,3530
2016-05-07T12:21:25.098Z,3520
2016-05-07T12:22:25.319Z,3500
2016-05-07T12:23:25.307Z,2855
2016-05-07T12:24:25.309Z,3560
2016-05-07T12:25:25.468Z,2595
2016-05-07T12:26:25.579Z,3635
2016-05-07T12:27:25.365Z,870
2016-05-07T12:28:25.664Z,805
2016-05-07T12:29:25.713Z,1235
2016-05-07T12:30:25.809Z,3505
2016-05-07T12:31:25.828Z,3555
2016-05-07T12:32:25.925Z,3545
2016-05-07T12:33:26.020Z,3595
2016-05-07T12:34:25.884Z,3525
2016-05-07T12:35:26.072Z,3630
2016-05-07T12:36:26.154Z,1050
2016-05-07T12:37:26.172Z,3610
2016-05-07T12:38:26.269Z,795
2016-05-07T12:39:26.302Z,820
2016-05-07T12:40:26.400Z,775
2016-05-07T12:41:26.261Z,885
2016-05-07T12:42:26.811Z,915
2016-05-07T12:43:26.391Z,3540
2016-05-07T12:44:26.597Z,1090
2016-05-07T12:45:26.506Z,820
2016-05-07T12:46:26.744Z,925
2016-05-07T12:47:26.824Z,3250
2016-05-07T12:48:26.702Z,3015
2016-05-07T12:49:26.955Z,3070
2016-05-07T12:50:26.832Z,3165
2016-05-07T12:51:27.022Z,3195
2016-05-07T12:52:26.962Z,3250
2016-05-07T12:53:27.184Z,3295
2016-05-07T12:54:27.076Z,3355
2016-05-07T12:55:27.237Z,3375
2016-05-07T12:56:27.364Z,2865
2016-05-07T12:57:27.413Z,2060
2016-05-07T12:58:27.291Z,3060
2016-05-07T12:59:27.201Z,3265
2016-05-07T13:00:27.406Z,3275
2016-05-07T13:01:27.674Z,3245
2016-05-07T13:02:27.709Z,1060
2016-05-07T13:03:27.539Z,845
2016-05-07T13:04:27.932Z,3155
2016-05-07T13:05:27.809Z,3085
2016-05-07T13:06:28.125Z,3000
2016-05-07T13:07:28.034Z,2950
2016-05-07T13:08:27.896Z,2970
2016-05-07T13:09:28.008Z,2930
2016-05-07T13:10:27.917Z,3000
2016-05-07T13:11:28.233Z,3035
2016-05-07T13:12:28.110Z,3085
2016-05-07T13:13:28.269Z,2545
2016-05-07T13:14:28.271Z,700
2016-05-07T13:15:28.509Z,740
2016-05-07T13:16:28.418Z,2920
2016-05-07T13:17:28.513Z,2720
2016-05-07T13:18:28.516Z,1510
2016-05-07T13:19:28.613Z,1040
2016-05-07T13:20:28.866Z,675
2016-05-07T13:21:28.727Z,2925
2016-05-07T13:22:28.105Z,2895
2016-05-07T13:23:29.077Z,2795
2016-05-07T13:24:29.048Z,2815
2016-05-07T13:25:29.160Z,2775
2016-05-07T13:26:29.195Z,2770
2016-05-07T13:27:28.885Z,2755
2016-05-07T13:28:28.996Z,2725
2016-05-07T13:29:29.406Z,2765
2016-05-07T13:30:29.283Z,2790
2016-05-07T13:31:29.504Z,2915
2016-05-07T13:32:29.601Z,2495
2016-05-07T13:33:29.682Z,2945
2016-05-07T13:34:29.700Z,2935
2016-05-07T13:35:29.734Z,2960
2016-05-07T13:36:29.831Z,2820
2016-05-07T13:37:29.756Z,825
2016-05-07T13:38:29.617Z,2825
2016-05-07T13:39:30.026Z,1710
2016-05-07T13:40:30.045Z,2790
2016-05-07T13:41:30.000Z,1060
2016-05-07T13:42:30.081Z,2655
2016-05-07T13:43:30.131Z,2595
2016-05-07T13:44:30.322Z,2565
2016-05-07T13:45:30.449Z,2550
2016-05-07T13:46:30.467Z,2565
2016-05-07T13:47:30.344Z,2565
2016-05-07T13:48:30.613Z,2560
2016-05-07T13:49:30.694Z,2550
2016-05-07T13:50:30.713Z,725
2016-05-07T13:51:30.762Z,2195
2016-05-07T13:52:30.718Z,2390
2016-05-07T13:53:30.752Z,2340
2016-05-07T13:54:30.974Z,2325
2016-05-07T13:55:30.898Z,2240
2016-05-07T13:56:31.134Z,1990
2016-05-07T13:57:31.184Z,2405